Time;durP1;ratioP1;P1;durP2;ratioP2;P2;SDS_P1;SDS_P2;PMS_P1;PMS_P2;Temp;Humidity;BMP_temperature;BMP_pressure;BME280_temperature;BME280_humidity;BME280_pressure;Samples;Min_cycle;Max_cycle;Signal;HPM_P1;HPM_P2
2021/09/28 00:00:16;;;;;;;;;;;;;;;22.42;65.07;100492.75;2074074;28;20348;-40
2021/09/28 00:01:17;;;;;;;;;;;;;;;22.42;65.09;100497.38;2075989;28;19916;-40
2021/09/28 00:02:17;;;;;;;;;;;;;;;22.42;64.91;100491.88;2075732;28;19919;-39
2021/09/28 00:03:17;;;;;;;;;;;;;;;22.43;65.04;100499.94;2076989;28;19913;-38
2021/09/28 00:04:18;;;;;;;;;;;;;;;22.43;65.14;100499.09;2072925;28;19913;-38
2021/09/28 00:05:18;;;;;;;;;;;;;;;22.42;65.01;100492.75;2073622;28;19983;-38
2021/09/28 00:06:18;;;;;;;;;;;;;;;22.42;64.94;100486.38;2068326;28;19974;-38
2021/09/28 00:07:18;;;;;;;;;;;;;;;22.43;64.85;100490.84;2068101;28;19956;-38
2021/09/28 00:08:19;;;;;;;;;;;;;;;22.41;65.02;100496.50;2078337;28;19971;-38
2021/09/28 00:09:19;;;;;;;;;;;;;;;22.43;64.79;100493.59;2073193;28;19920;-38
2021/09/28 00:10:20;;;;;;;;;;;;;;;22.42;64.82;100489.13;2076459;28;19921;-38
2021/09/28 00:11:20;;;;;;;;;;;;;;;22.42;64.89;100497.38;2070226;28;20175;-38
2021/09/28 00:12:20;;;;;;;;;;;;;;;22.41;64.85;100491.00;2072269;28;19925;-38
2021/09/28 00:13:21;;;;;;;;;;;;;;;22.41;64.87;100496.50;2073210;28;19960;-38
2021/09/28 00:14:21;;;;;;;;;;;;;;;22.42;64.90;100491.88;2072041;28;20134;-40
2021/09/28 00:15:22;;;;;;;;;;;;;;;22.42;64.95;100491.88;2076969;28;20011;-38
2021/09/28 00:16:22;;;;;;;;;;;;;;;22.41;64.85;100490.16;2069391;28;20144;-38
2021/09/28 00:17:22;;;;;;;;;;;;;;;22.41;65.04;100495.63;2073738;28;20355;-38
2021/09/28 00:18:23;;;;;;;;;;;;;;;22.41;64.99;100481.91;2076246;28;19923;-38
2021/09/28 00:19:23;;;;;;;;;;;;;;;22.41;64.99;100484.66;2070484;28;19913;-38
2021/09/28 00:20:24;;;;;;;;;;;;;;;22.40;65.01;100482.94;2071572;28;19916;-38
2021/09/28 00:21:24;;;;;;;;;;;;;;;22.41;64.97;100473.66;2078166;28;19909;-38
2021/09/28 00:22:25;;;;;;;;;;;;;;;22.41;65.01;100479.16;2071031;28;19975;-38
2021/09/28 00:23:25;;;;;;;;;;;;;;;22.41;64.94;100485.50;2072020;28;19913;-38
2021/09/28 00:24:25;;;;;;;;;;;;;;;22.40;64.73;100474.69;2076716;28;19924;-38
2021/09/28 00:25:26;;;;;;;;;;;;;;;22.40;64.91;100470.06;2075349;28;19947;-38
2021/09/28 00:26:26;;;;;;;;;;;;;;;22.41;64.94;100485.50;2068886;28;19940;-38
2021/09/28 00:27:27;;;;;;;;;;;;;;;22.40;64.93;100470.06;2072916;28;20258;-38
2021/09/28 00:28:28;;;;;;;;;;;;;;;22.40;64.96;100482.94;2076578;28;19909;-38
2021/09/28 00:29:28;;;;;;;;;;;;;;;22.40;64.93;100469.22;2069370;28;20272;-38
2021/09/28 00:30:29;;;;;;;;;;;;;;;22.40;64.94;100474.69;2071056;28;19928;-38
2021/09/28 00:31:29;;;;;;;;;;;;;;;22.39;64.81;100479.34;2074419;28;20306;-38
2021/09/28 00:32:30;;;;;;;;;;;;;;;22.40;64.95;100475.56;2082855;28;19931;-38
2021/09/28 00:33:30;;;;;;;;;;;;;;;22.40;64.74;100475.56;2067396;28;19961;-38
2021/09/28 00:34:31;;;;;;;;;;;;;;;22.41;64.98;100479.16;2068942;28;19928;-39
2021/09/28 00:35:31;;;;;;;;;;;;;;;22.40;64.96;100477.44;2073746;28;19925;-38
2021/09/28 00:36:31;;;;;;;;;;;;;;;22.39;64.89;100471.09;2072695;28;19916;-38
2021/09/28 00:37:32;;;;;;;;;;;;;;;22.39;64.93;100483.94;2072084;28;19966;-40
2021/09/28 00:38:32;;;;;;;;;;;;;;;22.40;64.91;100477.44;2072996;28;19983;-40
2021/09/28 00:39:32;;;;;;;;;;;;;;;22.40;64.91;100474.69;2076596;28;20041;-40
2021/09/28 00:40:33;;;;;;;;;;;;;;;22.40;64.86;100469.22;2076047;28;20334;-40
2021/09/28 00:41:33;;;;;;;;;;;;;;;22.39;64.94;100476.59;2076254;28;19917;-40
2021/09/28 00:42:36;;;;;;;;;;;;;;;22.40;64.60;100488.44;2069110;28;19924;-40
2021/09/28 00:43:45;;;;;;;;;;;;;;;22.39;64.77;100475.69;2075367;28;20357;-40
2021/09/28 00:44:46;;;;;;;;;;;;;;;22.39;64.79;100478.44;2077636;28;20381;-40
2021/09/28 00:45:46;;;;;;;;;;;;;;;22.39;64.75;100479.34;2080354;28;20015;-40
2021/09/28 00:46:47;;;;;;;;;;;;;;;22.39;64.69;100472.97;2060342;28;19948;-40
2021/09/28 00:47:47;;;;;;;;;;;;;;;22.39;64.86;100475.69;2061507;28;20330;-40
2021/09/28 00:48:47;;;;;;;;;;;;;;;22.38;64.87;100469.34;2077395;28;19917;-40
2021/09/28 00:49:48;;;;;;;;;;;;;;;22.38;64.93;100466.59;2075521;28;19917;-40
2021/09/28 00:50:49;;;;;;;;;;;;;;;22.38;64.80;100458.38;2073821;28;19923;-38
2021/09/28 00:51:49;;;;;;;;;;;;;;;22.38;64.88;100463.88;2072925;28;19921;-38
2021/09/28 00:52:50;;;;;;;;;;;;;;;22.38;64.71;100460.25;2076447;28;19939;-38
2021/09/28 00:53:52;;;;;;;;;;;;;;;22.38;64.82;100457.50;2075862;28;19915;-38
2021/09/28 00:54:52;;;;;;;;;;;;;;;22.39;64.81;100467.47;2073678;28;19921;-37
2021/09/28 00:55:52;;;;;;;;;;;;;;;22.38;64.88;100474.00;2069757;28;20422;-38
2021/09/28 00:56:53;;;;;;;;;;;;;;;22.38;64.71;100471.25;2071334;28;19909;-38
2021/09/28 00:57:55;;;;;;;;;;;;;;;22.39;64.55;100467.47;2070414;28;19916;-38
2021/09/28 00:59:00;;;;;;;;;;;;;;;22.37;64.63;100467.66;2073127;28;19936;-38
2021/09/28 01:00:03;;;;;;;;;;;;;;;22.38;64.78;100465.75;2073871;28;20265;-38
2021/09/28 01:01:03;;;;;;;;;;;;;;;22.38;64.66;100465.75;2073137;28;19917;-38
2021/09/28 01:02:05;;;;;;;;;;;;;;;22.37;64.66;100466.78;2072664;28;19927;-38
2021/09/28 01:03:07;;;;;;;;;;;;;;;22.37;64.71;100462.16;2068945;28;19925;-38
2021/09/28 01:04:07;;;;;;;;;;;;;;;22.37;64.76;100462.16;2069300;28;19959;-38
2021/09/28 01:05:08;;;;;;;;;;;;;;;22.37;64.81;100467.66;2074488;28;19952;-38
2021/09/28 01:06:08;;;;;;;;;;;;;;;22.38;64.82;100471.25;2075486;28;19921;-38
2021/09/28 01:07:09;;;;;;;;;;;;;;;22.38;64.83;100465.75;2069649;28;20307;-38
2021/09/28 01:08:10;;;;;;;;;;;;;;;22.37;64.83;100462.16;2079672;28;19916;-38
2021/09/28 01:09:11;;;;;;;;;;;;;;;22.38;64.65;100465.75;2077261;28;20079;-38
2021/09/28 01:10:12;;;;;;;;;;;;;;;22.38;64.86;100465.75;2071301;28;19928;-38
2021/09/28 01:11:12;;;;;;;;;;;;;;;22.38;64.65;100468.50;2075729;28;20118;-38
2021/09/28 01:12:13;;;;;;;;;;;;;;;22.37;64.68;100464.91;2074693;28;19920;-38
2021/09/28 01:13:13;;;;;;;;;;;;;;;22.38;64.67;100468.50;2074961;28;19931;-40
2021/09/28 01:14:13;;;;;;;;;;;;;;;22.37;64.55;100473.13;2073966;28;19975;-40
2021/09/28 01:15:14;;;;;;;;;;;;;;;22.37;64.66;100472.28;2076990;28;20399;-40
2021/09/28 01:16:14;;;;;;;;;;;;;;;22.37;64.68;100466.78;2074054;28;20132;-40
2021/09/28 01:17:16;;;;;;;;;;;;;;;22.37;64.65;100472.28;2071312;28;19917;-40
2021/09/28 01:18:18;;;;;;;;;;;;;;;22.37;64.75;100475.03;2071531;28;19917;-40
2021/09/28 01:19:19;;;;;;;;;;;;;;;22.36;64.79;100476.88;2071859;28;19920;-40
2021/09/28 01:20:19;;;;;;;;;;;;;;;22.37;64.64;100466.78;2067924;28;20412;-40
2021/09/28 01:21:20;;;;;;;;;;;;;;;22.36;64.63;100470.53;2078420;28;19921;-40
2021/09/28 01:22:20;;;;;;;;;;;;;;;22.36;64.73;100471.41;2074890;28;20529;-40
2021/09/28 01:23:20;;;;;;;;;;;;;;;22.36;64.56;100459.56;2073998;28;19932;-40
2021/09/28 01:24:21;;;;;;;;;;;;;;;22.36;64.60;100459.56;2074711;28;20111;-41
2021/09/28 01:25:21;;;;;;;;;;;;;;;22.35;64.65;100458.69;2067998;28;20629;-38
2021/09/28 01:26:24;;;;;;;;;;;;;;;22.36;64.60;100456.81;2066928;28;20271;-38
2021/09/28 01:27:24;;;;;;;;;;;;;;;22.36;64.80;100459.56;2074046;28;19964;-38
2021/09/28 01:28:25;;;;;;;;;;;;;;;22.35;64.71;100452.34;2072011;28;19943;-38
2021/09/28 01:29:25;;;;;;;;;;;;;;;22.34;64.78;100451.50;2072827;28;19909;-38
2021/09/28 01:30:26;;;;;;;;;;;;;;;22.35;64.75;100457.84;2071387;28;19909;-39
2021/09/28 01:31:26;;;;;;;;;;;;;;;22.35;64.73;100444.13;2069106;28;19909;-38
2021/09/28 01:32:27;;;;;;;;;;;;;;;22.35;64.66;100446.88;2073252;28;20014;-38
2021/09/28 01:33:27;;;;;;;;;;;;;;;22.34;64.66;100440.50;2072859;28;20286;-38
2021/09/28 01:34:27;;;;;;;;;;;;;;;22.35;64.75;100435.88;2072437;28;19932;-38
2021/09/28 01:35:28;;;;;;;;;;;;;;;22.36;64.81;100443.06;2075600;28;19913;-38
2021/09/28 01:36:29;;;;;;;;;;;;;;;22.35;64.74;100438.63;2075662;28;20475;-38
2021/09/28 01:37:29;;;;;;;;;;;;;;;22.35;64.63;100438.63;2075205;28;20923;-38
2021/09/28 01:38:30;;;;;;;;;;;;;;;22.35;64.71;100435.88;2077400;28;19920;-38
2021/09/28 01:39:30;;;;;;;;;;;;;;;22.34;64.62;100440.50;2075462;28;19921;-38
2021/09/28 01:40:31;;;;;;;;;;;;;;;22.36;64.56;100440.34;2076113;28;19921;-39
2021/09/28 01:41:31;;;;;;;;;;;;;;;22.34;64.54;100437.78;2074426;28;19956;-38
2021/09/28 01:42:31;;;;;;;;;;;;;;;22.34;64.77;100434.13;2075863;28;19967;-38
2021/09/28 01:43:31;;;;;;;;;;;;;;;22.35;64.66;100435.88;2072012;28;19923;-38
2021/09/28 01:44:34;;;;;;;;;;;;;;;22.35;64.71;100430.38;2073054;28;19968;-38
2021/09/28 01:45:35;;;;;;;;;;;;;;;22.35;64.74;100438.63;2077012;28;19966;-38
2021/09/28 01:46:36;;;;;;;;;;;;;;;22.34;64.53;100434.13;2076118;28;20222;-38
2021/09/28 01:47:38;;;;;;;;;;;;;;;22.34;64.60;100440.50;2077774;28;19916;-38
2021/09/28 01:48:44;;;;;;;;;;;;;;;22.35;64.85;100430.38;2072055;28;19987;-38
2021/09/28 01:49:45;;;;;;;;;;;;;;;22.34;64.73;100435.03;2073219;28;19921;-38
2021/09/28 01:50:45;;;;;;;;;;;;;;;22.34;64.63;100434.13;2072767;28;19924;-38
2021/09/28 01:51:46;;;;;;;;;;;;;;;22.34;64.56;100431.38;2076611;28;20025;-38
2021/09/28 01:52:46;;;;;;;;;;;;;;;22.34;64.66;100429.53;2073153;28;20011;-38
2021/09/28 01:53:46;;;;;;;;;;;;;;;22.33;64.48;100421.44;2071130;28;20284;-38
2021/09/28 01:54:47;;;;;;;;;;;;;;;22.33;64.50;100427.78;2072460;28;19921;-39
2021/09/28 01:55:47;;;;;;;;;;;;;;;22.34;64.74;100423.16;2079075;28;19935;-38
2021/09/28 01:56:47;;;;;;;;;;;;;;;22.33;64.69;100422.28;2068650;28;19917;-38
2021/09/28 01:57:47;;;;;;;;;;;;;;;22.33;64.83;100421.44;2070266;28;19921;-38
2021/09/28 01:58:48;;;;;;;;;;;;;;;22.33;64.70;100424.19;2076111;28;20644;-38
2021/09/28 01:59:49;;;;;;;;;;;;;;;22.33;64.50;100427.78;2073461;28;19917;-38
2021/09/28 02:00:49;;;;;;;;;;;;;;;22.34;64.68;100425.91;2074400;28;20296;-38
2021/09/28 02:01:49;;;;;;;;;;;;;;;22.33;64.47;100426.94;2076069;28;19917;-38
2021/09/28 02:02:49;;;;;;;;;;;;;;;22.32;64.68;100419.69;2067810;28;19917;-38
2021/09/28 02:03:50;;;;;;;;;;;;;;;22.33;64.71;100433.28;2069692;28;19947;-38
2021/09/28 02:04:50;;;;;;;;;;;;;;;22.32;64.61;100420.59;2076330;28;19963;-40
2021/09/28 02:05:51;;;;;;;;;;;;;;;22.34;64.51;100425.91;2068124;28;19924;-40
2021/09/28 02:06:51;;;;;;;;;;;;;;;22.33;64.65;100416.81;2072741;28;19917;-40
2021/09/28 02:07:51;;;;;;;;;;;;;;;22.33;64.56;100415.94;2073405;28;19928;-40
2021/09/28 02:08:52;;;;;;;;;;;;;;;22.32;64.56;100426.09;2074166;28;19921;-40
2021/09/28 02:09:52;;;;;;;;;;;;;;;22.33;64.68;100421.44;2073202;28;19927;-40
2021/09/28 02:10:52;;;;;;;;;;;;;;;22.32;64.62;100425.19;2072848;28;19961;-40
2021/09/28 02:11:53;;;;;;;;;;;;;;;22.33;64.71;100429.69;2072771;28;19943;-41
2021/09/28 02:12:53;;;;;;;;;;;;;;;22.33;64.62;100422.28;2066108;28;20730;-40
2021/09/28 02:13:54;;;;;;;;;;;;;;;22.33;64.53;100421.44;2065502;28;19924;-40
2021/09/28 02:14:55;;;;;;;;;;;;;;;22.32;64.43;100415.09;2079316;28;19920;-40
2021/09/28 02:15:55;;;;;;;;;;;;;;;22.32;64.46;100408.72;2075922;28;19917;-40
2021/09/28 02:16:57;;;;;;;;;;;;;;;22.33;64.44;100410.47;2072396;28;20357;-40
2021/09/28 02:17:58;;;;;;;;;;;;;;;22.33;64.50;100413.19;2071192;28;20982;-40
2021/09/28 02:18:58;;;;;;;;;;;;;;;22.31;64.48;100409.75;2067023;28;20148;-40
2021/09/28 02:19:59;;;;;;;;;;;;;;;22.31;64.61;100401.50;2067997;28;19917;-40
2021/09/28 02:20:59;;;;;;;;;;;;;;;22.32;64.56;100405.97;2063590;28;19927;-40
2021/09/28 02:21:59;;;;;;;;;;;;;;;22.31;64.57;100401.50;2069453;28;20310;-40
2021/09/28 02:23:00;;;;;;;;;;;;;;;22.31;64.51;100407.88;2075480;28;19992;-40
2021/09/28 02:24:00;;;;;;;;;;;;;;;22.32;64.63;100400.47;2075430;28;21082;-40
2021/09/28 02:25:00;;;;;;;;;;;;;;;22.31;64.44;100396.88;2069807;28;19975;-40
2021/09/28 02:26:01;;;;;;;;;;;;;;;22.31;64.63;100393.28;2073333;28;19925;-40
2021/09/28 02:27:01;;;;;;;;;;;;;;;22.30;64.61;100399.81;2073461;28;20650;-40
2021/09/28 02:28:01;;;;;;;;;;;;;;;22.31;64.50;100396.03;2066294;28;20378;-38
2021/09/28 02:29:02;;;;;;;;;;;;;;;22.31;64.44;100396.03;2063536;28;20028;-39
2021/09/28 02:30:03;;;;;;;;;;;;;;;22.30;64.65;100394.31;2070812;28;19917;-38
2021/09/28 02:31:04;;;;;;;;;;;;;;;22.31;64.39;100396.03;2073642;28;20021;-38
2021/09/28 02:32:04;;;;;;;;;;;;;;;22.30;64.52;100389.69;2074290;28;19913;-38
2021/09/28 02:33:05;;;;;;;;;;;;;;;22.30;64.42;100389.69;2077251;28;19909;-38
2021/09/28 02:34:10;;;;;;;;;;;;;;;22.30;64.55;100388.81;2069187;28;19947;-39
2021/09/28 02:35:10;;;;;;;;;;;;;;;22.30;64.66;100383.34;2068631;28;19924;-40
2021/09/28 02:36:11;;;;;;;;;;;;;;;22.30;64.62;100378.69;2072482;28;19928;-40
2021/09/28 02:37:12;;;;;;;;;;;;;;;22.29;64.64;100373.34;2075414;28;19996;-40
2021/09/28 02:38:12;;;;;;;;;;;;;;;22.29;64.49;100376.94;2077046;28;19917;-40
2021/09/28 02:39:13;;;;;;;;;;;;;;;22.29;64.47;100373.34;2069030;28;19936;-40
2021/09/28 02:40:14;;;;;;;;;;;;;;;22.29;64.48;100378.84;2072420;28;19962;-40
2021/09/28 02:41:14;;;;;;;;;;;;;;;22.29;64.63;100376.94;2075798;28;19924;-40
2021/09/28 02:42:15;;;;;;;;;;;;;;;22.30;64.63;100377.84;2077655;28;20212;-40
2021/09/28 02:43:15;;;;;;;;;;;;;;;22.30;64.66;100381.44;2075831;28;20864;-40
2021/09/28 02:44:16;;;;;;;;;;;;;;;22.31;64.66;100379.53;2074954;28;19963;-40
2021/09/28 02:45:17;;;;;;;;;;;;;;;22.29;64.40;100373.34;2076971;28;20010;-40
2021/09/28 02:46:17;;;;;;;;;;;;;;;22.29;64.50;100378.84;2075371;28;20824;-40
2021/09/28 02:47:18;;;;;;;;;;;;;;;22.30;64.48;100377.84;2071377;28;19917;-40
2021/09/28 02:48:18;;;;;;;;;;;;;;;22.30;64.57;100377.84;2077168;28;20394;-40
2021/09/28 02:49:18;;;;;;;;;;;;;;;22.29;64.48;100370.59;2078575;28;20325;-40
2021/09/28 02:50:19;;;;;;;;;;;;;;;22.29;64.58;100367.84;2071261;28;20249;-40
2021/09/28 02:51:19;;;;;;;;;;;;;;;22.28;64.61;100368.91;2077932;28;20349;-40
2021/09/28 02:52:19;;;;;;;;;;;;;;;22.28;64.42;100372.50;2070458;28;19923;-38
2021/09/28 02:53:20;;;;;;;;;;;;;;;22.28;64.59;100375.25;2061129;28;19936;-38
2021/09/28 02:54:20;;;;;;;;;;;;;;;22.29;64.50;100370.59;2069773;28;19925;-38
2021/09/28 02:55:20;;;;;;;;;;;;;;;22.28;64.47;100379.88;2072102;28;19967;-38
2021/09/28 02:56:21;;;;;;;;;;;;;;;22.28;64.41;100375.25;2072178;28;19917;-38
2021/09/28 02:57:21;;;;;;;;;;;;;;;22.28;64.43;100375.25;2071518;28;20880;-38
2021/09/28 02:58:22;;;;;;;;;;;;;;;22.28;64.42;100372.50;2077347;28;19942;-39
2021/09/28 02:59:22;;;;;;;;;;;;;;;22.29;64.64;100376.09;2077315;28;20298;-39
2021/09/28 03:00:22;;;;;;;;;;;;;;;22.28;64.59;100364.25;2078725;28;19971;-38
2021/09/28 03:01:22;;;;;;;;;;;;;;;22.29;64.51;100370.59;2074005;28;20661;-40
2021/09/28 03:02:23;;;;;;;;;;;;;;;22.28;64.61;100363.41;2070088;28;19917;-40
2021/09/28 03:03:23;;;;;;;;;;;;;;;22.28;64.54;100369.75;2077261;28;19916;-40
2021/09/28 03:04:24;;;;;;;;;;;;;;;22.28;64.72;100363.41;2067791;28;19920;-40
2021/09/28 03:05:24;;;;;;;;;;;;;;;22.28;64.68;100364.25;2070433;28;19913;-40
2021/09/28 03:06:24;;;;;;;;;;;;;;;22.28;64.53;100357.91;2070646;28;19917;-40
2021/09/28 03:07:25;;;;;;;;;;;;;;;22.28;64.59;100361.50;2071357;28;19952;-40
2021/09/28 03:08:25;;;;;;;;;;;;;;;22.28;64.48;100364.25;2075881;28;19921;-40
2021/09/28 03:09:26;;;;;;;;;;;;;;;22.28;64.72;100366.16;2072565;28;19916;-41
2021/09/28 03:10:26;;;;;;;;;;;;;;;22.28;64.67;100363.41;2070839;28;19923;-40
2021/09/28 03:11:27;;;;;;;;;;;;;;;22.26;64.58;100361.66;2077023;28;19917;-40
2021/09/28 03:12:27;;;;;;;;;;;;;;;22.28;64.56;100363.41;2074581;28;19996;-40
2021/09/28 03:13:27;;;;;;;;;;;;;;;22.28;64.60;100363.41;2075324;28;19959;-40
2021/09/28 03:14:28;;;;;;;;;;;;;;;22.26;64.60;100361.66;2077642;28;20515;-40
2021/09/28 03:15:28;;;;;;;;;;;;;;;22.28;64.38;100358.75;2072077;28;20277;-40
2021/09/28 03:16:29;;;;;;;;;;;;;;;22.26;64.61;100350.69;2073706;28;19905;-40
2021/09/28 03:17:29;;;;;;;;;;;;;;;22.26;64.37;100356.19;2073645;28;19923;-40
2021/09/28 03:18:29;;;;;;;;;;;;;;;22.28;64.60;100357.91;2072836;28;20815;-40
2021/09/28 03:19:29;;;;;;;;;;;;;;;22.26;64.57;100361.66;2077929;28;20349;-40
2021/09/28 03:20:30;;;;;;;;;;;;;;;22.26;64.64;100361.66;2071320;28;20370;-40
2021/09/28 03:21:30;;;;;;;;;;;;;;;22.26;64.54;100361.66;2075358;28;19921;-40
2021/09/28 03:22:30;;;;;;;;;;;;;;;22.28;64.53;100360.66;2077863;28;20579;-40
2021/09/28 03:23:31;;;;;;;;;;;;;;;22.26;64.44;100355.31;2074915;28;19909;-40
2021/09/28 03:24:31;;;;;;;;;;;;;;;22.26;64.63;100360.81;2081852;28;19966;-40
2021/09/28 03:25:32;;;;;;;;;;;;;;;22.26;64.42;100356.19;2076815;28;19916;-38
2021/09/28 03:26:32;;;;;;;;;;;;;;;22.26;64.60;100360.81;2076472;28;19921;-38
2021/09/28 03:27:33;;;;;;;;;;;;;;;22.28;64.65;100360.66;2071568;28;19931;-38
2021/09/28 03:28:33;;;;;;;;;;;;;;;22.26;64.69;100361.66;2070782;28;20147;-38
2021/09/28 03:29:33;;;;;;;;;;;;;;;22.26;64.51;100360.81;2079016;28;19921;-38
2021/09/28 03:30:34;;;;;;;;;;;;;;;22.26;64.54;100358.06;2074304;28;19925;-38
2021/09/28 03:31:34;;;;;;;;;;;;;;;22.26;64.50;100356.19;2070400;28;19921;-38
2021/09/28 03:32:36;;;;;;;;;;;;;;;22.25;64.59;100354.47;2077760;28;20334;-38
2021/09/28 03:33:36;;;;;;;;;;;;;;;22.25;64.50;100346.22;2076173;28;19917;-38
2021/09/28 03:34:36;;;;;;;;;;;;;;;22.25;64.40;100346.22;2077200;28;19923;-38
2021/09/28 03:35:37;;;;;;;;;;;;;;;22.25;64.52;100348.13;2076645;28;19919;-38
2021/09/28 03:36:37;;;;;;;;;;;;;;;22.25;64.68;100348.97;2071302;28;20035;-38
2021/09/28 03:37:42;;;;;;;;;;;;;;;22.25;64.74;100348.97;2073679;28;19909;-38
2021/09/28 03:38:42;;;;;;;;;;;;;;;22.25;64.47;100348.97;2069567;28;19928;-38
2021/09/28 03:39:42;;;;;;;;;;;;;;;22.24;64.66;100340.88;2070508;28;19917;-38
2021/09/28 03:40:43;;;;;;;;;;;;;;;22.26;64.73;100341.59;2071130;28;20377;-38
2021/09/28 03:41:44;;;;;;;;;;;;;;;22.25;64.51;100343.47;2071409;28;19967;-38
2021/09/28 03:42:46;;;;;;;;;;;;;;;22.25;64.53;100345.38;2068497;28;19955;-38
2021/09/28 03:43:46;;;;;;;;;;;;;;;22.25;64.58;100343.47;2069848;28;20457;-38
2021/09/28 03:44:47;;;;;;;;;;;;;;;22.24;64.53;100347.28;2073002;28;19978;-38
2021/09/28 03:45:47;;;;;;;;;;;;;;;22.25;64.67;100348.97;2073084;28;20008;-38
2021/09/28 03:46:47;;;;;;;;;;;;;;;22.24;64.78;100344.53;2071924;28;19924;-38
2021/09/28 03:47:47;;;;;;;;;;;;;;;22.25;64.67;100331.66;2071905;28;19927;-37
2021/09/28 03:48:48;;;;;;;;;;;;;;;22.24;64.59;100336.28;2069706;28;20326;-38
2021/09/28 03:49:48;;;;;;;;;;;;;;;22.24;64.63;100336.28;2072039;28;20339;-38
2021/09/28 03:50:48;;;;;;;;;;;;;;;22.24;64.50;100333.53;2077203;28;19928;-38
2021/09/28 03:51:49;;;;;;;;;;;;;;;22.23;64.55;100334.53;2077879;28;20327;-38
2021/09/28 03:52:49;;;;;;;;;;;;;;;22.24;64.52;100335.41;2076590;28;19917;-38
2021/09/28 03:53:51;;;;;;;;;;;;;;;22.25;64.68;100337.13;2075250;28;20004;-38
2021/09/28 03:54:51;;;;;;;;;;;;;;;22.24;64.53;100336.28;2073527;28;19917;-38
2021/09/28 03:55:52;;;;;;;;;;;;;;;22.24;64.68;100330.78;2072588;28;19920;-38
2021/09/28 03:56:52;;;;;;;;;;;;;;;22.23;64.70;100329.06;2078717;28;19917;-38
2021/09/28 03:57:53;;;;;;;;;;;;;;;22.24;64.67;100319.81;2076168;28;19921;-38
2021/09/28 03:58:53;;;;;;;;;;;;;;;22.24;64.64;100329.91;2076748;28;19928;-38
2021/09/28 03:59:55;;;;;;;;;;;;;;;22.22;64.40;100327.34;2069962;28;19916;-39
2021/09/28 04:00:55;;;;;;;;;;;;;;;22.23;64.52;100331.81;2074905;28;19913;-38
2021/09/28 04:01:56;;;;;;;;;;;;;;;22.24;64.54;100336.28;2078351;28;19995;-38
2021/09/28 04:02:56;;;;;;;;;;;;;;;22.24;64.60;100330.78;2074720;28;19925;-39
2021/09/28 04:03:57;;;;;;;;;;;;;;;22.24;64.81;100330.78;2077583;28;19990;-40
2021/09/28 04:04:57;;;;;;;;;;;;;;;22.24;64.66;100341.78;2077425;28;19917;-38
2021/09/28 04:05:57;;;;;;;;;;;;;;;22.24;64.56;100341.78;2075961;28;20006;-38
2021/09/28 04:06:59;;;;;;;;;;;;;;;22.23;64.70;100339.19;2075913;28;20314;-38
2021/09/28 04:07:59;;;;;;;;;;;;;;;22.25;64.60;100337.13;2076408;28;19917;-38
2021/09/28 04:08:59;;;;;;;;;;;;;;;22.22;64.46;100335.59;2077616;28;19921;-38
2021/09/28 04:10:01;;;;;;;;;;;;;;;22.23;64.55;100333.69;2069484;28;19948;-40
2021/09/28 04:11:01;;;;;;;;;;;;;;;22.22;64.57;100332.84;2071834;28;20028;-40
2021/09/28 04:12:02;;;;;;;;;;;;;;;22.22;64.54;100332.84;2074300;28;19921;-40
2021/09/28 04:13:03;;;;;;;;;;;;;;;22.22;64.55;100332.84;2076234;28;19936;-40
2021/09/28 04:14:03;;;;;;;;;;;;;;;22.23;64.61;100340.03;2076567;28;19927;-40
2021/09/28 04:15:05;;;;;;;;;;;;;;;22.22;64.77;100332.84;2070214;28;23045;-41
2021/09/28 04:16:06;;;;;;;;;;;;;;;22.22;64.55;100332.84;2070091;28;19917;-40
2021/09/28 04:17:06;;;;;;;;;;;;;;;22.22;64.32;100332.84;2074226;28;19920;-41
2021/09/28 04:18:07;;;;;;;;;;;;;;;22.22;64.67;100327.34;2078261;28;19927;-38
2021/09/28 04:19:08;;;;;;;;;;;;;;;22.22;64.69;100332.84;2072758;28;19917;-38
2021/09/28 04:20:08;;;;;;;;;;;;;;;22.22;64.70;100330.09;2071668;28;20550;-38
2021/09/28 04:21:09;;;;;;;;;;;;;;;22.21;64.78;100320.13;2071824;28;19917;-40
2021/09/28 04:22:09;;;;;;;;;;;;;;;22.21;64.62;100324.75;2075102;28;19917;-38
2021/09/28 04:23:11;;;;;;;;;;;;;;;22.22;64.63;100320.97;2076953;28;20345;-38
2021/09/28 04:24:12;;;;;;;;;;;;;;;22.21;64.55;100320.13;2077629;28;20477;-38
2021/09/28 04:25:12;;;;;;;;;;;;;;;22.21;64.74;100309.13;2073855;28;19917;-38
2021/09/28 04:26:12;;;;;;;;;;;;;;;22.21;64.69;100313.78;2074482;28;19921;-38
2021/09/28 04:27:13;;;;;;;;;;;;;;;22.20;64.56;100312.91;2074541;28;20350;-38
2021/09/28 04:28:13;;;;;;;;;;;;;;;22.21;64.76;100309.13;2076895;28;19924;-38
2021/09/28 04:29:14;;;;;;;;;;;;;;;22.21;64.79;100305.53;2074627;28;20355;-38
2021/09/28 04:30:14;;;;;;;;;;;;;;;22.20;64.61;100312.06;2071841;28;19917;-40
2021/09/28 04:31:15;;;;;;;;;;;;;;;22.20;64.64;100310.16;2064936;28;19917;-40
2021/09/28 04:32:16;;;;;;;;;;;;;;;22.21;64.59;100311.03;2065835;28;19932;-41
2021/09/28 04:33:16;;;;;;;;;;;;;;;22.21;64.81;100311.88;2071364;28;19928;-38
2021/09/28 04:34:17;;;;;;;;;;;;;;;22.20;64.74;100307.44;2077214;28;19967;-38
2021/09/28 04:35:17;;;;;;;;;;;;;;;22.19;64.71;100305.66;2070876;28;19963;-38
2021/09/28 04:36:17;;;;;;;;;;;;;;;22.20;64.80;100318.41;2073333;28;19916;-38
2021/09/28 04:37:18;;;;;;;;;;;;;;;22.21;64.59;100319.25;2074106;28;19951;-38
2021/09/28 04:38:18;;;;;;;;;;;;;;;22.21;64.61;100320.13;2075908;28;20294;-38
2021/09/28 04:39:18;;;;;;;;;;;;;;;22.20;64.63;100306.56;2077524;28;19913;-38
2021/09/28 04:40:18;;;;;;;;;;;;;;;22.20;64.54;100307.44;2068092;28;19940;-38
2021/09/28 04:41:19;;;;;;;;;;;;;;;22.20;64.49;100320.31;2068793;28;20020;-38
2021/09/28 04:42:19;;;;;;;;;;;;;;;22.19;64.71;100308.41;2070044;28;20343;-38
2021/09/28 04:43:19;;;;;;;;;;;;;;;22.19;64.68;100308.41;2076264;28;19921;-38
2021/09/28 04:44:20;;;;;;;;;;;;;;;22.19;64.68;100305.66;2075546;28;19917;-38
2021/09/28 04:45:20;;;;;;;;;;;;;;;22.20;64.76;100303.81;2068219;28;19917;-38
2021/09/28 04:46:20;;;;;;;;;;;;;;;22.19;64.61;100304.81;2070032;28;19925;-38
2021/09/28 04:47:21;;;;;;;;;;;;;;;22.20;64.78;100301.94;2072029;28;20400;-38
2021/09/28 04:48:21;;;;;;;;;;;;;;;22.20;64.42;100301.94;2077561;28;19913;-38
2021/09/28 04:49:21;;;;;;;;;;;;;;;22.19;64.61;100305.66;2072916;28;20016;-38
2021/09/28 04:50:22;;;;;;;;;;;;;;;22.19;64.55;100310.28;2075782;28;19917;-38
2021/09/28 04:51:22;;;;;;;;;;;;;;;22.19;64.79;100319.38;2071411;28;20262;-38
2021/09/28 04:52:22;;;;;;;;;;;;;;;22.18;64.55;100308.59;2073635;28;19916;-38
2021/09/28 04:53:24;;;;;;;;;;;;;;;22.18;64.77;100306.69;2077293;28;19921;-38
2021/09/28 04:54:24;;;;;;;;;;;;;;;22.18;64.78;100314.94;2071839;28;19916;-38
2021/09/28 04:55:25;;;;;;;;;;;;;;;22.19;64.55;100311.16;2072542;28;19909;-38
2021/09/28 04:56:25;;;;;;;;;;;;;;;22.19;64.66;100316.63;2072539;28;19925;-38
2021/09/28 04:57:26;;;;;;;;;;;;;;;22.19;64.60;100322.13;2062494;28;19924;-38
2021/09/28 04:58:26;;;;;;;;;;;;;;;22.19;64.56;100327.63;2077242;28;19924;-38
2021/09/28 04:59:26;;;;;;;;;;;;;;;22.19;64.66;100318.53;2070440;28;19925;-38
2021/09/28 05:00:27;;;;;;;;;;;;;;;22.19;64.81;100311.16;2070747;28;19909;-38
2021/09/28 05:01:27;;;;;;;;;;;;;;;22.18;64.72;100303.94;2076607;28;19920;-38
2021/09/28 05:02:27;;;;;;;;;;;;;;;22.18;64.67;100301.19;2072501;28;20177;-39
2021/09/28 05:03:28;;;;;;;;;;;;;;;22.18;64.65;100309.44;2075435;28;19923;-38
2021/09/28 05:04:28;;;;;;;;;;;;;;;22.18;64.75;100303.09;2076936;28;19920;-38
2021/09/28 05:05:29;;;;;;;;;;;;;;;22.18;64.52;100306.69;2075040;28;19913;-38
2021/09/28 05:06:30;;;;;;;;;;;;;;;22.18;64.74;100309.44;2077541;28;19920;-38
2021/09/28 05:07:30;;;;;;;;;;;;;;;22.18;64.86;100314.94;2072905;28;20497;-35
2021/09/28 05:08:30;;;;;;;;;;;;;;;22.18;64.70;100309.44;2075486;28;20249;-38
2021/09/28 05:09:32;;;;;;;;;;;;;;;22.17;64.75;100304.97;2075937;28;19916;-38
2021/09/28 05:10:32;;;;;;;;;;;;;;;22.18;64.67;100301.19;2072634;28;20378;-38